Time;durP1;ratioP1;P1;durP2;ratioP2;P2;SDS_P1;SDS_P2;PMS_P1;PMS_P2;Temp;Humidity;BMP_temperature;BMP_pressure;BME280_temperature;BME280_humidity;BME280_pressure;Samples;Min_cycle;Max_cycle;Signal;HPM_P1;HPM_P2
2023/09/25 00:01:53;;;;;;;1.80;1.37;;;;;;;;;;5031342;28;20434;-55
2023/09/25 00:04:23;;;;;;;2.40;1.53;;;;;;;;;;5031476;28;21003;-56
2023/09/25 00:06:52;;;;;;;3.17;1.33;;;;;;;;;;5031531;28;20462;-54
2023/09/25 00:09:19;;;;;;;6.13;2.20;;;;;;;;;;5031826;28;20458;-54
2023/09/25 00:11:47;;;;;;;2.00;1.40;;;;;;;;;;5032625;28;20482;-55
2023/09/25 00:14:14;;;;;;;4.00;1.30;;;;;;;;;;5032172;28;20456;-53
2023/09/25 00:16:42;;;;;;;2.47;1.50;;;;;;;;;;5032539;28;21020;-54
2023/09/25 00:19:09;;;;;;;2.53;1.50;;;;;;;;;;5032358;28;20942;-54
2023/09/25 00:21:36;;;;;;;10.00;5.30;;;;;;;;;;5032180;28;20473;-54
2023/09/25 00:24:05;;;;;;;3.27;2.10;;;;;;;;;;5032321;28;20450;-54
2023/09/25 00:26:33;;;;;;;2.37;1.40;;;;;;;;;;5032469;28;20474;-54
2023/09/25 00:29:00;;;;;;;3.07;2.43;;;;;;;;;;5031339;28;20454;-53
2023/09/25 00:31:28;;;;;;;3.87;1.73;;;;;;;;;;5031656;28;20524;-54
2023/09/25 00:33:56;;;;;;;1.83;1.23;;;;;;;;;;5032339;28;20513;-54
2023/09/25 00:36:23;;;;;;;2.23;1.40;;;;;;;;;;5032094;28;20553;-55
2023/09/25 00:38:51;;;;;;;2.23;1.57;;;;;;;;;;5032421;28;20454;-53
2023/09/25 00:41:19;;;;;;;4.13;1.67;;;;;;;;;;5031733;28;20493;-55
2023/09/25 00:43:47;;;;;;;2.23;1.63;;;;;;;;;;5040842;28;20445;-54
2023/09/25 00:46:14;;;;;;;2.67;1.63;;;;;;;;;;5046637;28;20527;-54
2023/09/25 00:48:42;;;;;;;2.37;1.50;;;;;;;;;;5050174;28;20446;-54
2023/09/25 00:51:10;;;;;;;2.43;1.53;;;;;;;;;;5047196;28;20481;-53
2023/09/25 00:53:40;;;;;;;3.73;1.50;;;;;;;;;;5032195;28;20537;-53
2023/09/25 00:56:08;;;;;;;2.40;1.30;;;;;;;;;;5032229;28;20977;-54
2023/09/25 00:58:36;;;;;;;2.20;1.47;;;;;;;;;;5031446;28;20446;-54
2023/09/25 01:01:04;;;;;;;2.73;1.70;;;;;;;;;;5031200;28;20446;-53
2023/09/25 01:03:32;;;;;;;1.90;1.20;;;;;;;;;;5031204;28;20484;-54
2023/09/25 01:06:00;;;;;;;2.10;1.30;;;;;;;;;;5028957;28;20542;-55
2023/09/25 01:08:27;;;;;;;2.67;1.30;;;;;;;;;;5031772;28;20465;-54
2023/09/25 01:10:55;;;;;;;2.00;1.30;;;;;;;;;;5030816;28;20485;-54
2023/09/25 01:13:22;;;;;;;5.57;1.33;;;;;;;;;;5031164;28;20841;-53
2023/09/25 01:15:51;;;;;;;2.60;1.60;;;;;;;;;;5031743;28;20458;-55
2023/09/25 01:18:18;;;;;;;2.67;1.63;;;;;;;;;;5031344;28;20826;-54
2023/09/25 01:20:45;;;;;;;4.63;1.30;;;;;;;;;;5030827;28;20442;-54
2023/09/25 01:23:14;;;;;;;2.63;2.37;;;;;;;;;;5030871;28;20477;-55
2023/09/25 01:25:42;;;;;;;3.27;2.17;;;;;;;;;;5031368;28;20500;-53
2023/09/25 01:28:10;;;;;;;2.40;1.80;;;;;;;;;;5031145;28;20867;-54
2023/09/25 01:30:38;;;;;;;3.07;1.80;;;;;;;;;;5030683;28;20561;-53
2023/09/25 01:33:05;;;;;;;3.10;1.63;;;;;;;;;;5030295;28;20852;-54
2023/09/25 01:35:33;;;;;;;2.50;1.97;;;;;;;;;;5031030;28;20831;-53
2023/09/25 01:38:01;;;;;;;2.40;1.60;;;;;;;;;;5030400;28;20478;-53
2023/09/25 01:40:30;;;;;;;2.17;1.30;;;;;;;;;;5030017;28;20508;-55
2023/09/25 01:42:58;;;;;;;1.97;1.23;;;;;;;;;;5034482;28;20478;-53
2023/09/25 01:45:26;;;;;;;2.20;1.30;;;;;;;;;;5042029;28;20482;-54
2023/09/25 01:47:54;;;;;;;2.70;1.63;;;;;;;;;;5043935;28;20557;-53
2023/09/25 01:50:22;;;;;;;3.00;1.43;;;;;;;;;;5048301;28;20487;-53
2023/09/25 01:52:50;;;;;;;2.43;1.30;;;;;;;;;;5034363;28;20450;-56
2023/09/25 01:55:17;;;;;;;2.20;1.43;;;;;;;;;;5030845;28;20801;-55
2023/09/25 01:57:46;;;;;;;1.93;1.43;;;;;;;;;;5030923;28;20524;-54
2023/09/25 02:00:14;;;;;;;2.33;1.27;;;;;;;;;;5030223;28;20965;-55
2023/09/25 02:02:41;;;;;;;1.83;1.30;;;;;;;;;;5030397;28;20446;-54
2023/09/25 02:05:09;;;;;;;1.73;1.23;;;;;;;;;;5030275;28;20516;-53
2023/09/25 02:07:36;;;;;;;3.33;1.30;;;;;;;;;;5030596;28;20462;-53
2023/09/25 02:10:03;;;;;;;2.70;1.37;;;;;;;;;;5031859;28;20492;-54
2023/09/25 02:12:31;;;;;;;2.77;1.30;;;;;;;;;;5028769;28;21105;-53
2023/09/25 02:15:01;;;;;;;3.47;1.27;;;;;;;;;;5030526;28;20442;-54
2023/09/25 02:17:29;;;;;;;2.30;1.50;;;;;;;;;;5023930;28;21049;-54
2023/09/25 02:20:03;;;;;;;2.17;1.30;;;;;;;;;;5030046;28;20504;-54
2023/09/25 02:22:31;;;;;;;2.57;1.43;;;;;;;;;;5030816;28;20445;-54
2023/09/25 02:24:58;;;;;;;1.90;1.27;;;;;;;;;;5030154;28;20504;-53
2023/09/25 02:27:25;;;;;;;3.40;1.50;;;;;;;;;;5030469;28;20463;-53
2023/09/25 02:29:53;;;;;;;2.33;1.40;;;;;;;;;;5030646;28;21016;-56
2023/09/25 02:32:21;;;;;;;2.40;1.43;;;;;;;;;;5029805;28;20489;-54
2023/09/25 02:34:48;;;;;;;2.23;1.30;;;;;;;;;;5030662;28;20481;-53
2023/09/25 02:37:16;;;;;;;2.50;1.77;;;;;;;;;;5030017;28;20521;-53
2023/09/25 02:39:43;;;;;;;2.10;1.33;;;;;;;;;;5030392;28;20446;-55
2023/09/25 02:42:10;;;;;;;2.40;1.50;;;;;;;;;;5031665;28;20438;-53
2023/09/25 02:44:38;;;;;;;3.33;1.77;;;;;;;;;;5043534;28;20453;-54
2023/09/25 02:47:06;;;;;;;4.80;1.63;;;;;;;;;;5040159;28;20474;-54
2023/09/25 02:49:34;;;;;;;2.87;1.30;;;;;;;;;;5043495;28;20938;-55
2023/09/25 02:52:01;;;;;;;2.90;1.30;;;;;;;;;;5030175;28;20563;-55
2023/09/25 02:54:30;;;;;;;2.70;1.50;;;;;;;;;;5034235;28;20486;-55
2023/09/25 02:56:57;;;;;;;2.90;1.60;;;;;;;;;;5033960;28;20497;-54
2023/09/25 02:59:24;;;;;;;1.60;1.00;;;;;;;;;;5033826;28;20477;-54
2023/09/25 03:01:51;;;;;;;1.93;0.97;;;;;;;;;;5034163;28;20504;-53
2023/09/25 03:04:19;;;;;;;6.23;1.77;;;;;;;;;;5034039;28;20496;-54
2023/09/25 03:06:47;;;;;;;3.63;1.77;;;;;;;;;;5033789;28;20850;-54
2023/09/25 03:09:14;;;;;;;2.27;1.30;;;;;;;;;;5036130;28;20437;-52
2023/09/25 03:11:42;;;;;;;1.63;0.90;;;;;;;;;;5035632;28;20482;-53
2023/09/25 03:14:09;;;;;;;1.60;1.10;;;;;;;;;;5036254;28;20442;-54
2023/09/25 03:16:36;;;;;;;2.27;1.10;;;;;;;;;;5035474;28;20469;-54
2023/09/25 03:19:03;;;;;;;2.57;1.20;;;;;;;;;;5036628;28;20474;-53
2023/09/25 03:21:31;;;;;;;2.40;1.47;;;;;;;;;;5035019;28;20569;-56
2023/09/25 03:23:59;;;;;;;3.50;1.60;;;;;;;;;;5036172;28;20504;-54
2023/09/25 03:26:27;;;;;;;3.43;1.57;;;;;;;;;;5027618;28;20458;-55
2023/09/25 03:28:54;;;;;;;2.40;1.40;;;;;;;;;;5033034;28;20500;-54
2023/09/25 03:31:21;;;;;;;2.80;1.63;;;;;;;;;;5033348;28;20555;-53
2023/09/25 03:33:48;;;;;;;2.97;1.63;;;;;;;;;;5033595;28;20499;-53
2023/09/25 03:36:16;;;;;;;2.87;1.63;;;;;;;;;;5032952;28;20501;-54
2023/09/25 03:38:43;;;;;;;2.33;1.80;;;;;;;;;;5029542;28;20446;-53
2023/09/25 03:41:12;;;;;;;2.53;1.47;;;;;;;;;;5032402;28;20438;-53
2023/09/25 03:43:39;;;;;;;3.60;1.63;;;;;;;;;;5045614;28;20445;-53
2023/09/25 03:46:06;;;;;;;2.33;1.33;;;;;;;;;;5050484;28;20558;-54
2023/09/25 03:48:34;;;;;;;2.00;1.30;;;;;;;;;;5051409;28;20445;-53
2023/09/25 03:51:01;;;;;;;1.80;1.40;;;;;;;;;;5040343;28;20548;-55
2023/09/25 03:53:28;;;;;;;3.50;1.83;;;;;;;;;;5032748;28;20500;-55
2023/09/25 03:55:55;;;;;;;2.40;1.53;;;;;;;;;;5047422;28;20477;-53
2023/09/25 03:58:24;;;;;;;2.23;1.60;;;;;;;;;;5048687;28;20446;-54
2023/09/25 04:00:52;;;;;;;2.50;2.00;;;;;;;;;;5047106;28;20925;-52
2023/09/25 04:03:19;;;;;;;2.40;1.60;;;;;;;;;;5032255;28;20468;-55
2023/09/25 04:05:47;;;;;;;1.93;1.50;;;;;;;;;;5032313;28;20442;-53
2023/09/25 04:08:14;;;;;;;2.07;1.50;;;;;;;;;;5032652;28;20537;-54
2023/09/25 04:10:41;;;;;;;5.20;4.23;;;;;;;;;;5032648;28;20444;-54
2023/09/25 04:13:09;;;;;;;19.40;15.13;;;;;;;;;;5032657;28;20540;-53
2023/09/25 04:15:37;;;;;;;10.47;8.30;;;;;;;;;;5032955;28;20454;-56
2023/09/25 04:18:06;;;;;;;5.33;4.17;;;;;;;;;;5032696;28;20934;-53
2023/09/25 04:20:33;;;;;;;2.83;1.80;;;;;;;;;;5032301;28;20473;-54
2023/09/25 04:23:01;;;;;;;2.60;2.23;;;;;;;;;;5032146;28;20442;-53
2023/09/25 04:25:29;;;;;;;2.43;1.83;;;;;;;;;;5032780;28;20446;-53
2023/09/25 04:27:57;;;;;;;9.50;6.93;;;;;;;;;;5031973;28;20520;-54
2023/09/25 04:30:25;;;;;;;7.13;4.00;;;;;;;;;;5031911;28;20446;-54
2023/09/25 04:32:54;;;;;;;3.10;2.27;;;;;;;;;;5032420;28;20508;-54
2023/09/25 04:35:22;;;;;;;4.40;3.77;;;;;;;;;;5032157;28;20791;-53
2023/09/25 04:37:49;;;;;;;6.10;5.37;;;;;;;;;;5040227;23;20562;-88
2023/09/25 04:40:22;;;;;;;4.50;3.43;;;;;;;;;;5012354;28;20498;-87
2023/09/25 04:42:50;;;;;;;4.73;2.93;;;;;;;;;;4999071;28;20995;-88
2023/09/25 04:45:19;;;;;;;2.30;2.00;;;;;;;;;;5016746;28;20444;-87
2023/09/25 04:47:46;;;;;;;2.70;1.57;;;;;;;;;;5009107;28;20491;-87
2023/09/25 04:50:15;;;;;;;4.07;2.03;;;;;;;;;;5026761;23;20502;-56
2023/09/25 04:52:44;;;;;;;4.63;2.97;;;;;;;;;;5011084;28;20848;-56
2023/09/25 04:55:12;;;;;;;4.50;2.60;;;;;;;;;;5014032;28;20455;-56
2023/09/25 04:57:39;;;;;;;2.90;2.10;;;;;;;;;;5008095;28;20524;-59
2023/09/25 05:00:13;;;;;;;3.07;2.17;;;;;;;;;;5004893;28;20521;-55
2023/09/25 05:02:41;;;;;;;3.13;1.80;;;;;;;;;;5013679;28;20447;-55
2023/09/25 05:05:09;;;;;;;4.10;2.03;;;;;;;;;;5014269;28;20478;-54
2023/09/25 05:07:37;;;;;;;4.40;3.20;;;;;;;;;;5013777;28;20892;-55
2023/09/25 05:10:05;;;;;;;2.87;1.60;;;;;;;;;;5013974;28;20474;-55
2023/09/25 05:12:32;;;;;;;2.87;1.70;;;;;;;;;;5014174;28;20503;-56
2023/09/25 05:15:00;;;;;;;2.83;1.87;;;;;;;;;;5010754;28;20451;-55
2023/09/25 05:17:27;;;;;;;3.80;1.50;;;;;;;;;;5012951;28;20462;-55
2023/09/25 05:19:54;;;;;;;2.63;1.60;;;;;;;;;;5012260;28;20517;-56
2023/09/25 05:22:22;;;;;;;2.40;1.57;;;;;;;;;;5013566;28;20529;-55
2023/09/25 05:24:51;;;;;;;2.50;1.10;;;;;;;;;;5013616;28;20446;-56
2023/09/25 05:27:18;;;;;;;2.80;1.43;;;;;;;;;;5012439;28;20558;-56
2023/09/25 05:29:46;;;;;;;3.57;1.80;;;;;;;;;;5013401;28;20443;-63
2023/09/25 05:32:13;;;;;;;4.90;2.20;;;;;;;;;;5004773;28;20491;-55
2023/09/25 05:34:40;;;;;;;5.67;2.70;;;;;;;;;;4996579;28;20452;-57
2023/09/25 05:37:08;;;;;;;3.40;3.10;;;;;;;;;;4997738;28;20468;-55
2023/09/25 05:39:36;;;;;;;4.53;3.00;;;;;;;;;;5000128;28;20775;-56
2023/09/25 05:42:05;;;;;;;5.77;2.77;;;;;;;;;;5014196;28;20489;-55
2023/09/25 05:44:32;;;;;;;11.63;3.00;;;;;;;;;;5013993;28;20454;-62
2023/09/25 05:46:59;;;;;;;3.43;3.10;;;;;;;;;;5008841;28;20490;-59
2023/09/25 05:49:27;;;;;;;5.23;2.47;;;;;;;;;;5012867;28;20443;-60
2023/09/25 05:51:54;;;;;;;2.67;2.30;;;;;;;;;;5012098;28;20538;-56
2023/09/25 05:54:22;;;;;;;2.17;1.70;;;;;;;;;;5011811;28;20824;-55
2023/09/25 05:56:50;;;;;;;2.60;1.60;;;;;;;;;;5010797;28;21039;-62
2023/09/25 05:59:18;;;;;;;3.53;2.30;;;;;;;;;;5011000;28;20517;-55
2023/09/25 06:01:46;;;;;;;2.23;2.03;;;;;;;;;;5012539;28;20537;-55
2023/09/25 06:04:15;;;;;;;4.10;3.30;;;;;;;;;;5013628;28;20509;-55
2023/09/25 06:06:43;;;;;;;3.43;2.50;;;;;;;;;;5013149;28;20509;-55
2023/09/25 06:09:15;;;;;;;3.03;2.70;;;;;;;;;;5010433;28;20443;-55
2023/09/25 06:11:43;;;;;;;3.20;2.30;;;;;;;;;;5010874;28;20457;-56
2023/09/25 06:14:10;;;;;;;4.50;2.40;;;;;;;;;;5009398;28;20455;-55
2023/09/25 06:16:40;;;;;;;3.83;2.30;;;;;;;;;;5011651;28;20999;-55
2023/09/25 06:19:08;;;;;;;2.63;1.83;;;;;;;;;;5011750;28;20459;-55
2023/09/25 06:21:35;;;;;;;2.53;1.50;;;;;;;;;;5012063;28;20486;-54
2023/09/25 06:24:04;;;;;;;2.43;1.80;;;;;;;;;;5012599;28;20695;-56
2023/09/25 06:26:31;;;;;;;2.53;2.00;;;;;;;;;;5013034;28;20648;-55
2023/09/25 06:28:58;;;;;;;6.70;1.80;;;;;;;;;;5012558;28;20874;-56
2023/09/25 06:31:25;;;;;;;6.50;3.03;;;;;;;;;;5008898;28;20447;-56
2023/09/25 06:33:54;;;;;;;3.50;3.00;;;;;;;;;;5012889;28;20475;-56
2023/09/25 06:36:21;;;;;;;2.80;1.83;;;;;;;;;;5012541;28;20471;-55
2023/09/25 06:38:49;;;;;;;4.50;2.70;;;;;;;;;;5009033;28;20447;-56
2023/09/25 06:41:16;;;;;;;6.97;4.63;;;;;;;;;;5011608;28;20451;-57
2023/09/25 06:43:43;;;;;;;5.50;3.60;;;;;;;;;;5011446;28;20443;-56
2023/09/25 06:46:11;;;;;;;6.30;3.20;;;;;;;;;;5010878;28;20443;-56
2023/09/25 06:48:38;;;;;;;4.10;2.77;;;;;;;;;;5010984;28;20517;-56
2023/09/25 06:51:07;;;;;;;2.77;2.30;;;;;;;;;;5009953;28;20455;-56
2023/09/25 06:53:34;;;;;;;3.70;2.37;;;;;;;;;;5011990;28;20474;-56
2023/09/25 06:56:01;;;;;;;3.30;2.33;;;;;;;;;;5004439;28;20526;-56
2023/09/25 06:58:29;;;;;;;1.70;1.30;;;;;;;;;;4999001;28;20452;-56
2023/09/25 07:00:56;;;;;;;2.40;1.43;;;;;;;;;;4999301;28;20447;-56
2023/09/25 07:03:23;;;;;;;2.87;1.63;;;;;;;;;;5003794;28;20482;-56
2023/09/25 07:05:50;;;;;;;3.30;1.87;;;;;;;;;;4998548;28;20474;-56
2023/09/25 07:08:19;;;;;;;2.43;1.20;;;;;;;;;;5002797;28;20890;-56
2023/09/25 07:10:48;;;;;;;2.17;1.27;;;;;;;;;;5011479;28;20482;-56
2023/09/25 07:13:16;;;;;;;2.10;1.37;;;;;;;;;;5012081;28;20479;-56
2023/09/25 07:15:44;;;;;;;3.57;2.60;;;;;;;;;;5010967;28;20448;-56
2023/09/25 07:18:11;;;;;;;4.50;1.93;;;;;;;;;;5010458;28;20498;-56
2023/09/25 07:20:39;;;;;;;3.00;2.37;;;;;;;;;;5010672;28;20516;-58
2023/09/25 07:23:07;;;;;;;3.00;1.57;;;;;;;;;;5011052;28;20458;-55
2023/09/25 07:25:35;;;;;;;3.07;2.17;;;;;;;;;;5011791;28;20443;-56
2023/09/25 07:28:03;;;;;;;2.63;1.50;;;;;;;;;;5010654;28;20986;-56
2023/09/25 07:30:30;;;;;;;2.13;1.10;;;;;;;;;;5010027;28;21005;-55
2023/09/25 07:32:57;;;;;;;3.27;2.10;;;;;;;;;;5008892;28;20475;-56
2023/09/25 07:35:24;;;;;;;2.57;1.50;;;;;;;;;;5009854;28;20506;-57
2023/09/25 07:37:52;;;;;;;2.40;1.60;;;;;;;;;;5011744;28;20545;-56
2023/09/25 07:40:20;;;;;;;2.43;1.47;;;;;;;;;;5012612;28;20439;-56
2023/09/25 07:42:49;;;;;;;2.30;1.30;;;;;;;;;;5013910;28;20963;-57
2023/09/25 07:45:22;;;;;;;3.10;2.73;;;;;;;;;;5015282;28;20441;-55
2023/09/25 07:47:52;;;;;;;3.10;1.83;;;;;;;;;;5015834;28;20467;-56
2023/09/25 07:50:19;;;;;;;2.90;1.83;;;;;;;;;;5014418;28;20455;-57
2023/09/25 07:52:48;;;;;;;2.10;1.50;;;;;;;;;;5013679;28;20917;-56
2023/09/25 07:55:16;;;;;;;3.30;1.63;;;;;;;;;;5014424;28;20462;-56
2023/09/25 07:57:43;;;;;;;4.03;1.67;;;;;;;;;;5011213;28;20474;-56
2023/09/25 08:00:17;;;;;;;9.23;2.03;;;;;;;;;;5011612;28;20452;-56
2023/09/25 08:02:47;;;;;;;4.33;2.23;;;;;;;;;;5015369;28;20443;-56
2023/09/25 08:05:15;;;;;;;5.13;2.00;;;;;;;;;;5014407;28;21006;-56
2023/09/25 08:07:43;;;;;;;4.97;1.50;;;;;;;;;;5012992;28;20471;-56
2023/09/25 08:10:10;;;;;;;2.20;1.30;;;;;;;;;;5004573;28;20539;-56
2023/09/25 08:12:38;;;;;;;2.33;1.50;;;;;;;;;;5007986;28;21088;-59
2023/09/25 08:15:06;;;;;;;2.23;1.70;;;;;;;;;;5009942;28;20468;-57
2023/09/25 08:17:35;;;;;;;1.80;1.10;;;;;;;;;;5013605;28;20657;-56
2023/09/25 08:20:13;;;;;;;2.40;1.00;;;;;;;;;;5012655;28;20984;-55
2023/09/25 08:22:40;;;;;;;2.37;1.47;;;;;;;;;;5012744;28;20454;-56
2023/09/25 08:25:09;;;;;;;2.50;1.47;;;;;;;;;;5004356;28;20448;-57
2023/09/25 08:27:35;;;;;;;2.57;1.53;;;;;;;;;;5012202;28;20538;-57
2023/09/25 08:30:03;;;;;;;3.40;1.63;;;;;;;;;;5011369;28;20473;-61
2023/09/25 08:32:31;;;;;;;2.67;1.50;;;;;;;;;;5007317;28;20443;-58
2023/09/25 08:34:59;;;;;;;2.97;1.33;;;;;;;;;;5011193;28;20447;-56
2023/09/25 08:37:27;;;;;;;2.40;1.20;;;;;;;;;;5009858;28;20541;-59
2023/09/25 08:39:54;;;;;;;2.53;1.20;;;;;;;;;;5011626;28;20442;-56
2023/09/25 08:42:22;;;;;;;2.50;1.57;;;;;;;;;;5012121;28;20498;-56
2023/09/25 08:44:50;;;;;;;1.90;1.30;;;;;;;;;;5012163;28;20939;-56
2023/09/25 08:47:19;;;;;;;5.40;1.60;;;;;;;;;;5009647;28;20465;-57
2023/09/25 08:49:48;;;;;;;2.33;1.40;;;;;;;;;;5011356;28;20539;-55
2023/09/25 08:52:17;;;;;;;2.77;1.60;;;;;;;;;;5011770;28;21006;-56
2023/09/25 08:54:44;;;;;;;2.07;1.27;;;;;;;;;;5011927;28;20994;-57
2023/09/25 08:57:12;;;;;;;2.50;1.40;;;;;;;;;;5012092;28;20471;-57
2023/09/25 08:59:40;;;;;;;2.23;1.30;;;;;;;;;;5011483;28;20546;-57
2023/09/25 09:02:08;;;;;;;2.30;1.30;;;;;;;;;;5011515;28;20454;-60
2023/09/25 09:04:36;;;;;;;2.60;1.20;;;;;;;;;;5011832;28;20806;-57
2023/09/25 09:07:03;;;;;;;3.20;1.60;;;;;;;;;;5011440;28;20471;-56
2023/09/25 09:09:32;;;;;;;2.33;1.30;;;;;;;;;;5011629;28;20455;-59
2023/09/25 09:11:59;;;;;;;2.60;1.23;;;;;;;;;;5011434;28;20447;-57
2023/09/25 09:14:34;;;;;;;2.20;1.40;;;;;;;;;;5011371;28;20486;-57
2023/09/25 09:17:04;;;;;;;3.60;2.03;;;;;;;;;;5011150;28;20553;-55
2023/09/25 09:19:32;;;;;;;2.87;1.70;;;;;;;;;;5010895;28;20447;-56
2023/09/25 09:22:04;;;;;;;2.67;1.57;;;;;;;;;;5011363;28;20943;-57
2023/09/25 09:24:33;;;;;;;2.20;1.70;;;;;;;;;;5011701;28;20881;-55
2023/09/25 09:27:01;;;;;;;2.70;1.80;;;;;;;;;;5010966;28;20971;-58
2023/09/25 09:29:28;;;;;;;3.60;1.70;;;;;;;;;;5010929;28;20951;-57
2023/09/25 09:31:57;;;;;;;2.27;1.20;;;;;;;;;;5011091;28;20443;-56
2023/09/25 09:34:25;;;;;;;2.90;1.73;;;;;;;;;;5011100;28;21025;-55
2023/09/25 09:36:52;;;;;;;1.90;1.30;;;;;;;;;;5004239;28;20500;-57
2023/09/25 09:39:22;;;;;;;2.67;1.20;;;;;;;;;;5000497;28;20492;-57
2023/09/25 09:41:51;;;;;;;2.50;1.70;;;;;;;;;;4992954;28;20990;-57
2023/09/25 09:44:19;;;;;;;5.00;1.23;;;;;;;;;;4993079;28;20528;-57
2023/09/25 09:46:46;;;;;;;3.07;1.40;;;;;;;;;;4993033;28;20475;-57
2023/09/25 09:49:16;;;;;;;2.47;1.50;;;;;;;;;;4995584;28;20944;-57
2023/09/25 09:51:45;;;;;;;2.10;1.40;;;;;;;;;;5010911;28;20950;-57
2023/09/25 09:54:13;;;;;;;2.70;1.80;;;;;;;;;;5010610;28;20548;-56
2023/09/25 09:56:41;;;;;;;1.80;1.33;;;;;;;;;;5010804;28;20502;-56
2023/09/25 09:59:11;;;;;;;2.27;1.50;;;;;;;;;;5010226;28;20535;-56
2023/09/25 10:01:39;;;;;;;2.30;1.30;;;;;;;;;;5010457;28;20443;-55
2023/09/25 10:04:06;;;;;;;3.13;2.13;;;;;;;;;;5010378;28;20439;-55
2023/09/25 10:06:37;;;;;;;3.20;1.70;;;;;;;;;;5010532;28;20463;-55
2023/09/25 10:09:09;;;;;;;2.27;1.30;;;;;;;;;;5010294;28;20447;-55
2023/09/25 10:11:36;;;;;;;2.67;1.53;;;;;;;;;;5009193;28;20448;-56
2023/09/25 10:14:04;;;;;;;2.10;1.20;;;;;;;;;;5009693;28;21019;-56
2023/09/25 10:16:52;;;;;;;3.33;1.73;;;;;;;;;;5010277;28;20538;-55
2023/09/25 10:19:20;;;;;;;1.87;1.23;;;;;;;;;;5008953;28;20497;-56
2023/09/25 10:22:02;;;;;;;2.33;1.40;;;;;;;;;;5009742;28;20442;-55
2023/09/25 10:24:30;;;;;;;2.40;1.43;;;;;;;;;;5009509;28;20493;-56
2023/09/25 10:26:58;;;;;;;1.90;1.50;;;;;;;;;;5010059;28;20549;-56
2023/09/25 10:29:25;;;;;;;2.53;1.30;;;;;;;;;;5009002;28;20517;-55
2023/09/25 10:31:53;;;;;;;3.23;1.50;;;;;;;;;;5008975;28;21014;-56
2023/09/25 10:34:25;;;;;;;2.23;1.30;;;;;;;;;;5009090;28;20482;-56
2023/09/25 10:36:52;;;;;;;1.97;1.27;;;;;;;;;;5024094;23;20492;-89
2023/09/25 10:39:20;;;;;;;1.97;1.20;;;;;;;;;;5022343;28;20454;-89
2023/09/25 10:41:57;;;;;;;3.27;1.30;;;;;;;;;;5017364;28;20432;-90
2023/09/25 10:44:26;;;;;;;3.07;1.43;;;;;;;;;;5026551;28;20455;-90
2023/09/25 10:46:55;;;;;;;2.17;1.30;;;;;;;;;;5014106;28;20633;-89
2023/09/25 10:49:24;;;;;;;2.53;1.50;;;;;;;;;;5040977;23;20494;-55
2023/09/25 10:51:51;;;;;;;2.87;1.50;;;;;;;;;;5009473;28;20538;-56
2023/09/25 10:54:18;;;;;;;2.13;1.53;;;;;;;;;;5008552;28;20557;-55
2023/09/25 10:56:46;;;;;;;2.23;1.50;;;;;;;;;;5007761;28;20509;-55
2023/09/25 10:59:13;;;;;;;2.63;1.30;;;;;;;;;;5007588;28;20534;-55
2023/09/25 11:01:40;;;;;;;3.13;1.60;;;;;;;;;;5009069;28;20509;-55
2023/09/25 11:04:12;;;;;;;2.80;1.40;;;;;;;;;;5010051;28;20522;-55
2023/09/25 11:06:39;;;;;;;2.43;1.50;;;;;;;;;;5010461;28;20467;-55
2023/09/25 11:09:11;;;;;;;2.47;1.43;;;;;;;;;;5009480;28;20455;-53
2023/09/25 11:11:40;;;;;;;2.53;1.20;;;;;;;;;;5008715;28;20443;-54
2023/09/25 11:14:08;;;;;;;2.40;1.30;;;;;;;;;;5010597;28;20474;-53
2023/09/25 11:16:36;;;;;;;2.47;1.47;;;;;;;;;;5012979;28;20538;-54
2023/09/25 11:19:08;;;;;;;2.10;1.50;;;;;;;;;;5013064;28;20473;-53
2023/09/25 11:21:37;;;;;;;2.87;1.30;;;;;;;;;;5013730;28;20538;-53
2023/09/25 11:24:06;;;;;;;2.10;1.30;;;;;;;;;;5014004;28;20471;-54
2023/09/25 11:26:36;;;;;;;2.33;1.40;;;;;;;;;;5013902;28;20565;-54
2023/09/25 11:29:03;;;;;;;3.07;1.43;;;;;;;;;;5014082;28;20551;-55
2023/09/25 11:31:30;;;;;;;2.67;1.37;;;;;;;;;;5013410;28;20485;-55
2023/09/25 11:33:58;;;;;;;2.70;1.43;;;;;;;;;;5013742;28;20551;-53
2023/09/25 11:36:25;;;;;;;2.73;1.63;;;;;;;;;;5013560;28;20443;-53
2023/09/25 11:38:54;;;;;;;4.27;1.37;;;;;;;;;;5013844;28;20489;-54
2023/09/25 11:41:21;;;;;;;3.70;1.40;;;;;;;;;;5013486;28;20447;-54
2023/09/25 11:43:48;;;;;;;2.60;1.50;;;;;;;;;;5013781;28;20501;-53
2023/09/25 11:46:16;;;;;;;2.77;1.50;;;;;;;;;;5013617;28;20489;-55
2023/09/25 11:48:43;;;;;;;3.70;1.93;;;;;;;;;;5013397;28;20538;-55
2023/09/25 11:51:11;;;;;;;2.50;1.70;;;;;;;;;;5013078;28;20442;-55
2023/09/25 11:53:38;;;;;;;2.57;1.50;;;;;;;;;;5013342;28;20521;-54
2023/09/25 11:56:07;;;;;;;1.93;1.07;;;;;;;;;;5013441;28;20796;-54
2023/09/25 11:58:34;;;;;;;2.57;1.50;;;;;;;;;;5013494;28;20467;-54
2023/09/25 12:01:03;;;;;;;2.13;1.60;;;;;;;;;;5012934;28;20501;-54
2023/09/25 12:03:37;;;;;;;3.67;1.50;;;;;;;;;;5013416;28;20793;-56
2023/09/25 12:06:05;;;;;;;2.33;1.57;;;;;;;;;;5012831;28;20493;-54
2023/09/25 12:08:33;;;;;;;1.87;1.47;;;;;;;;;;5013278;28;20545;-54
2023/09/25 12:11:00;;;;;;;2.00;1.40;;;;;;;;;;5012956;28;20529;-54
2023/09/25 12:13:29;;;;;;;7.50;3.40;;;;;;;;;;5013323;28;20443;-54
2023/09/25 12:15:56;;;;;;;3.10;2.07;;;;;;;;;;5013054;28;20534;-54
2023/09/25 12:18:24;;;;;;;6.07;2.80;;;;;;;;;;5012756;28;20521;-53
2023/09/25 12:20:51;;;;;;;7.60;3.73;;;;;;;;;;5012933;28;20538;-51
2023/09/25 12:23:19;;;;;;;17.70;8.30;;;;;;;;;;5012810;28;20447;-55
2023/09/25 12:25:46;;;;;;;3.03;1.57;;;;;;;;;;5012255;28;20447;-53
2023/09/25 12:28:13;;;;;;;3.40;1.70;;;;;;;;;;5012572;28;20677;-54
2023/09/25 12:30:43;;;;;;;5.00;2.20;;;;;;;;;;5012497;28;20478;-53
2023/09/25 12:33:10;;;;;;;3.07;1.50;;;;;;;;;;5012567;28;20454;-52
2023/09/25 12:35:41;;;;;;;3.17;1.60;;;;;;;;;;5012552;28;20537;-54
2023/09/25 12:38:09;;;;;;;3.13;1.30;;;;;;;;;;5012570;28;20475;-53
2023/09/25 12:40:36;;;;;;;2.80;1.77;;;;;;;;;;5012390;28;20458;-53
2023/09/25 12:43:04;;;;;;;2.07;1.33;;;;;;;;;;5012514;28;20479;-55
2023/09/25 12:45:31;;;;;;;2.60;1.47;;;;;;;;;;5013097;28;20443;-53
2023/09/25 12:48:00;;;;;;;2.57;1.50;;;;;;;;;;5012485;28;20478;-53
2023/09/25 12:50:27;;;;;;;4.00;1.30;;;;;;;;;;4992351;28;20452;-55
2023/09/25 12:52:54;;;;;;;2.20;1.30;;;;;;;;;;4992622;28;20447;-54
2023/09/25 12:55:21;;;;;;;2.27;1.40;;;;;;;;;;4992533;28;20483;-54
2023/09/25 12:57:50;;;;;;;2.00;1.30;;;;;;;;;;4992605;28;20476;-53
2023/09/25 13:00:19;;;;;;;2.90;1.53;;;;;;;;;;4992231;28;20484;-53
2023/09/25 13:02:46;;;;;;;2.47;1.80;;;;;;;;;;4993006;28;20448;-55
2023/09/25 13:05:15;;;;;;;3.53;1.73;;;;;;;;;;4992506;28;20511;-53
2023/09/25 13:07:42;;;;;;;2.43;1.50;;;;;;;;;;4992473;28;20496;-54
2023/09/25 13:10:12;;;;;;;2.67;1.50;;;;;;;;;;4991896;28;20502;-53
2023/09/25 13:12:39;;;;;;;3.77;1.50;;;;;;;;;;4992131;28;20995;-54
2023/09/25 13:15:08;;;;;;;1.90;1.20;;;;;;;;;;4992599;28;20566;-54
2023/09/25 13:17:35;;;;;;;2.10;1.57;;;;;;;;;;4992386;28;20471;-54
2023/09/25 13:20:07;;;;;;;2.47;1.43;;;;;;;;;;4992096;28;20498;-53
2023/09/25 13:22:35;;;;;;;2.23;1.27;;;;;;;;;;4992372;28;20888;-53
2023/09/25 13:25:04;;;;;;;2.50;1.93;;;;;;;;;;4992021;28;20456;-54
2023/09/25 13:27:31;;;;;;;2.40;1.40;;;;;;;;;;4992065;28;20472;-53
2023/09/25 13:29:58;;;;;;;2.60;1.30;;;;;;;;;;4992070;28;20452;-54
2023/09/25 13:32:26;;;;;;;2.10;1.23;;;;;;;;;;4992083;28;20611;-53
2023/09/25 13:34:53;;;;;;;2.63;1.50;;;;;;;;;;4991782;28;20547;-53
2023/09/25 13:37:20;;;;;;;2.63;1.33;;;;;;;;;;4990862;28;20538;-54
2023/09/25 13:39:49;;;;;;;2.00;1.40;;;;;;;;;;4991638;28;20940;-53
2023/09/25 13:42:16;;;;;;;1.83;1.33;;;;;;;;;;4991934;28;20444;-53
2023/09/25 13:44:44;;;;;;;2.83;1.40;;;;;;;;;;4992029;28;20436;-53
2023/09/25 13:47:11;;;;;;;3.10;1.27;;;;;;;;;;4991450;28;20547;-53
2023/09/25 13:49:43;;;;;;;2.63;1.23;;;;;;;;;;4991336;28;20452;-53
2023/09/25 13:52:10;;;;;;;3.27;1.27;;;;;;;;;;4991371;28;20519;-53
2023/09/25 13:54:37;;;;;;;3.87;1.40;;;;;;;;;;4991909;28;20487;-53
2023/09/25 13:57:06;;;;;;;3.57;1.50;;;;;;;;;;4991586;28;20499;-53
2023/09/25 13:59:33;;;;;;;3.30;1.53;;;;;;;;;;4991131;28;20444;-55
2023/09/25 14:02:00;;;;;;;2.03;1.37;;;;;;;;;;4991659;28;20452;-53
2023/09/25 14:04:30;;;;;;;3.63;1.70;;;;;;;;;;4991610;28;20448;-53
2023/09/25 14:06:57;;;;;;;3.60;1.70;;;;;;;;;;4991503;28;20820;-53
2023/09/25 14:09:25;;;;;;;2.10;1.33;;;;;;;;;;4991413;28;20535;-53
2023/09/25 14:11:53;;;;;;;2.10;1.07;;;;;;;;;;4991664;28;20542;-54
2023/09/25 14:14:22;;;;;;;1.90;1.00;;;;;;;;;;5010026;28;20952;-53
2023/09/25 14:16:51;;;;;;;2.10;1.30;;;;;;;;;;5010842;28;20469;-53
2023/09/25 14:19:18;;;;;;;2.60;1.37;;;;;;;;;;5010508;28;20455;-53
2023/09/25 14:21:45;;;;;;;2.40;1.40;;;;;;;;;;5010882;28;20903;-53
2023/09/25 14:24:13;;;;;;;2.93;1.50;;;;;;;;;;5010593;28;20455;-54
2023/09/25 14:26:40;;;;;;;2.47;1.50;;;;;;;;;;5010712;28;20467;-53
2023/09/25 14:29:07;;;;;;;2.00;1.00;;;;;;;;;;5011015;28;20447;-54
2023/09/25 14:31:36;;;;;;;3.03;1.27;;;;;;;;;;5010497;28;21260;-55
2023/09/25 14:34:04;;;;;;;2.43;1.20;;;;;;;;;;5010503;28;20538;-54
2023/09/25 14:36:31;;;;;;;2.20;1.10;;;;;;;;;;5010598;28;20491;-53
2023/09/25 14:38:59;;;;;;;2.30;1.40;;;;;;;;;;5010727;28;20790;-53
2023/09/25 14:41:26;;;;;;;2.33;1.10;;;;;;;;;;5003274;28;20447;-53
2023/09/25 14:43:53;;;;;;;2.73;1.40;;;;;;;;;;5010839;28;20443;-55
2023/09/25 14:46:20;;;;;;;2.27;1.30;;;;;;;;;;5010123;28;20451;-53
2023/09/25 14:48:49;;;;;;;2.70;1.50;;;;;;;;;;5012100;28;20447;-54